Time;durP1;ratioP1;P1;durP2;ratioP2;P2;SDS_P1;SDS_P2;PMS_P1;PMS_P2;Temp;Humidity;BMP_temperature;BMP_pressure;BME280_temperature;BME280_humidity;BME280_pressure;Samples;Min_cycle;Max_cycle;Signal;HPM_P1;HPM_P2
2022/08/27 00:00:12;;;;;;;19.27;7.07;;;;;;;22.09;80.43;99693.25;5105082;27;20032;-65
2022/08/27 00:02:37;;;;;;;12.98;6.50;;;;;;;22.08;81.14;99697.00;5103401;28;20033;-65
2022/08/27 00:05:03;;;;;;;11.18;5.80;;;;;;;22.04;81.22;99696.63;5105168;28;20048;-65
2022/08/27 00:07:29;;;;;;;21.05;6.90;;;;;;;21.97;81.21;99686.81;5104873;28;20430;-65
2022/08/27 00:09:55;;;;;;;13.75;6.43;;;;;;;21.99;81.00;99691.00;5105811;28;20022;-65
2022/08/27 00:12:20;;;;;;;13.82;6.80;;;;;;;21.97;81.33;99695.00;5106710;27;20041;-65
2022/08/27 00:14:46;;;;;;;14.65;6.68;;;;;;;21.88;82.08;99689.00;5106154;27;20043;-65
2022/08/27 00:17:12;;;;;;;15.45;6.68;;;;;;;21.89;82.58;99687.94;5107780;27;20093;-65
2022/08/27 00:19:39;;;;;;;15.80;7.22;;;;;;;21.86;83.51;99696.56;5103334;28;20452;-65
2022/08/27 00:22:06;;;;;;;15.32;6.53;;;;;;;21.85;83.70;99699.50;5105815;28;20565;-65
2022/08/27 00:24:31;;;;;;;17.63;6.80;;;;;;;21.83;83.91;99691.53;5105807;28;20055;-65
2022/08/27 00:26:57;;;;;;;19.10;6.25;;;;;;;21.79;83.71;99697.66;5105797;28;20491;-66
2022/08/27 00:29:23;;;;;;;14.93;6.95;;;;;;;21.76;83.46;99701.69;5107435;27;20039;-65
2022/08/27 00:31:49;;;;;;;20.73;6.57;;;;;;;21.72;83.12;99705.03;5103006;28;20437;-65
2022/08/27 00:34:14;;;;;;;11.88;6.35;;;;;;;21.72;83.49;99702.31;5107136;27;20040;-65
2022/08/27 00:36:40;;;;;;;19.63;6.70;;;;;;;21.67;83.40;99696.69;5105600;28;20058;-65
2022/08/27 00:39:06;;;;;;;15.45;6.13;;;;;;;21.60;82.72;99690.44;5105126;28;20095;-65
2022/08/27 00:41:32;;;;;;;13.90;6.10;;;;;;;21.57;82.10;99701.81;5105472;28;20440;-66
2022/08/27 00:44:00;;;;;;;11.90;6.22;;;;;;;21.46;81.58;99697.88;5105266;28;20435;-65
2022/08/27 00:46:33;;;;;;;14.82;6.93;;;;;;;21.44;82.06;99696.44;5105289;28;20028;-65
2022/08/27 00:49:28;;;;;;;15.00;6.70;;;;;;;21.40;82.03;99692.44;5103680;28;20782;-65
2022/08/27 00:51:58;;;;;;;17.45;6.03;;;;;;;21.35;82.12;99695.00;5105401;28;20031;-65
2022/08/27 00:54:26;;;;;;;11.20;6.47;;;;;;;21.37;82.11;99701.91;5105066;28;20031;-65
2022/08/27 00:56:53;;;;;;;12.35;5.97;;;;;;;21.34;81.88;99705.09;5105554;28;20038;-65
2022/08/27 00:59:23;;;;;;;18.98;6.00;;;;;;;21.31;81.27;99704.69;5106714;27;20047;-65
2022/08/27 01:04:36;;;;;;;17.02;6.43;;;;;;;21.28;81.91;99707.88;5105181;28;20043;-66
2022/08/27 01:07:03;;;;;;;14.18;5.80;;;;;;;21.21;81.49;99699.69;5104154;28;20032;-65
2022/08/27 01:09:29;;;;;;;14.73;5.88;;;;;;;21.18;81.42;99708.31;5104414;28;20429;-66
2022/08/27 01:11:56;;;;;;;17.75;5.85;;;;;;;21.20;81.28;99717.13;5104947;28;20049;-65
2022/08/27 01:14:22;;;;;;;10.77;5.78;;;;;;;21.19;81.49;99710.00;5104742;28;20114;-65
2022/08/27 01:16:54;;;;;;;13.38;5.97;;;;;;;21.15;81.31;99708.75;5104302;28;20081;-65
2022/08/27 01:19:37;;;;;;;17.05;6.85;;;;;;;21.16;81.32;99715.03;5105226;28;20052;-64
2022/08/27 01:22:18;;;;;;;13.68;6.60;;;;;;;21.14;81.98;99717.13;5105262;28;20035;-65
2022/08/27 01:24:49;;;;;;;16.80;6.10;;;;;;;21.12;82.42;99713.81;5105284;28;20028;-65
2022/08/27 01:27:19;;;;;;;13.45;6.68;;;;;;;21.09;82.49;99720.50;5107434;28;20030;-66
2022/08/27 01:29:45;;;;;;;16.38;6.65;;;;;;;21.06;82.85;99720.97;5103736;28;20027;-65
2022/08/27 01:32:22;;;;;;;14.48;6.05;;;;;;;21.02;82.55;99725.16;5105415;28;20033;-65
2022/08/27 01:34:48;;;;;;;12.65;5.75;;;;;;;20.98;82.80;99723.94;5103979;28;20694;-65
2022/08/27 01:37:16;;;;;;;13.82;6.32;;;;;;;20.96;82.65;99722.47;5104237;28;20038;-65
2022/08/27 01:39:42;;;;;;;17.40;6.70;;;;;;;20.91;82.99;99719.50;5106779;28;20538;-66
2022/08/27 01:42:15;;;;;;;10.07;5.88;;;;;;;20.87;83.10;99721.00;5104922;28;20028;-65
2022/08/27 01:44:43;;;;;;;9.98;5.72;;;;;;;20.85;82.98;99717.66;5104331;28;20062;-65
2022/08/27 01:47:09;;;;;;;12.38;5.93;;;;;;;20.81;82.15;99722.72;5105430;28;20039;-65
2022/08/27 01:49:34;;;;;;;16.50;5.60;;;;;;;20.82;81.78;99728.97;5112918;28;20144;-65
2022/08/27 01:51:59;;;;;;;11.45;5.15;;;;;;;20.81;81.97;99727.31;5104818;28;20699;-65
2022/08/27 01:54:25;;;;;;;13.07;6.10;;;;;;;20.79;82.12;99723.97;5104916;28;20020;-65
2022/08/27 01:56:50;;;;;;;16.75;6.82;;;;;;;20.72;82.61;99714.97;5104701;28;20492;-65
2022/08/27 01:59:16;;;;;;;9.95;6.00;;;;;;;20.73;82.76;99722.94;5105065;28;20028;-65
2022/08/27 02:01:42;;;;;;;10.90;5.72;;;;;;;20.67;82.63;99714.78;5107461;28;20031;-65
2022/08/27 02:04:08;;;;;;;14.65;5.82;;;;;;;20.66;82.47;99715.84;5105791;28;20031;-65
2022/08/27 02:06:33;;;;;;;12.30;5.40;;;;;;;20.71;82.06;99718.75;5104536;28;20459;-65
2022/08/27 02:08:59;;;;;;;12.90;5.20;;;;;;;20.69;81.18;99724.41;5105978;28;20088;-65
2022/08/27 02:11:24;;;;;;;9.80;5.45;;;;;;;20.68;80.94;99716.44;5103894;28;20046;-65
2022/08/27 02:13:50;;;;;;;11.57;5.22;;;;;;;20.66;79.98;99713.13;5107077;28;20496;-65
2022/08/27 02:16:15;;;;;;;12.75;6.18;;;;;;;20.65;79.62;99722.31;5103408;28;20084;-65
2022/08/27 02:18:41;;;;;;;15.32;5.82;;;;;;;20.60;78.12;99714.78;5104138;28;20043;-65
2022/08/27 02:21:07;;;;;;;11.02;5.05;;;;;;;20.66;77.08;99718.56;5105460;28;20157;-66
2022/08/27 02:23:33;;;;;;;14.15;5.60;;;;;;;20.65;75.73;99722.31;5103226;28;20044;-65
2022/08/27 02:25:58;;;;;;;10.48;5.50;;;;;;;20.61;75.02;99716.47;5103447;28;20471;-65
2022/08/27 02:28:25;;;;;;;12.23;5.30;;;;;;;20.60;74.68;99716.69;5105091;28;20126;-65
2022/08/27 02:30:50;;;;;;;16.42;5.05;;;;;;;20.66;74.29;99724.84;5104858;28;20053;-65
2022/08/27 02:33:16;;;;;;;7.53;4.60;;;;;;;20.67;73.61;99726.50;5105565;28;20031;-65
2022/08/27 02:35:43;;;;;;;12.65;5.22;;;;;;;20.68;73.98;99730.94;5105616;28;20570;-65
2022/08/27 02:38:11;;;;;;;9.80;5.20;;;;;;;20.68;74.42;99739.09;5103397;28;20114;-65
2022/08/27 02:40:36;;;;;;;17.20;5.70;;;;;;;20.62;74.41;99722.75;5102774;28;20511;-65
2022/08/27 02:43:03;;;;;;;16.88;5.65;;;;;;;20.65;74.48;99723.16;5108759;28;20089;-65
2022/08/27 02:45:28;;;;;;;17.08;5.80;;;;;;;20.58;75.10;99725.09;5107970;27;20504;-65
2022/08/27 02:47:54;;;;;;;15.27;5.30;;;;;;;20.63;75.20;99736.16;5110879;27;20040;-65
2022/08/27 02:50:20;;;;;;;12.57;5.60;;;;;;;20.61;75.71;99737.44;5108624;28;20024;-65
2022/08/27 02:52:45;;;;;;;11.63;5.80;;;;;;;20.59;76.79;99739.53;5107747;28;20023;-65
2022/08/27 02:55:11;;;;;;;17.13;5.45;;;;;;;20.55;77.42;99738.28;5108078;28;20031;-65
2022/08/27 02:57:37;;;;;;;13.93;5.88;;;;;;;20.52;77.97;99739.56;5106125;28;20035;-65
2022/08/27 03:00:09;;;;;;;13.00;5.72;;;;;;;20.48;78.66;99740.19;5107709;28;20544;-65
2022/08/27 03:02:35;;;;;;;11.85;5.28;;;;;;;20.43;78.93;99734.53;5107144;28;20072;-65
2022/08/27 03:05:00;;;;;;;16.13;5.78;;;;;;;20.33;77.80;99725.94;5109141;27;20047;-66
2022/08/27 03:07:26;;;;;;;10.38;5.05;;;;;;;20.35;77.33;99732.03;5107740;28;20024;-65
2022/08/27 03:09:52;;;;;;;9.88;5.07;;;;;;;20.36;76.88;99740.00;5106565;28;20046;-65
2022/08/27 03:12:18;;;;;;;13.13;5.40;;;;;;;20.34;76.91;99733.09;5107748;28;20032;-66
2022/08/27 03:14:44;;;;;;;15.77;6.28;;;;;;;20.31;76.52;99730.78;5107687;27;20110;-65
2022/08/27 03:19:54;;;;;;;12.13;5.70;;;;;;;20.31;76.42;99738.97;5107558;28;20097;-65
2022/08/27 03:22:20;;;;;;;9.48;4.65;;;;;;;20.31;76.31;99733.50;5107735;28;20391;-65
2022/08/27 03:24:45;;;;;;;8.60;5.78;;;;;;;20.13;75.98;99713.19;5107262;28;20058;-65
2022/08/27 03:27:11;;;;;;;11.35;5.72;;;;;;;20.25;75.84;99737.06;5107384;28;20084;-65
2022/08/27 03:29:36;;;;;;;14.52;5.80;;;;;;;20.26;76.32;99734.16;5106953;28;20070;-65
2022/08/27 03:32:05;;;;;;;17.38;5.35;;;;;;;20.19;76.08;99725.97;5111865;27;20027;-65
2022/08/27 03:34:31;;;;;;;13.15;5.95;;;;;;;20.18;76.53;99724.28;5105371;28;20058;-65
2022/08/27 03:36:59;;;;;;;15.55;5.82;;;;;;;20.22;76.86;99732.91;5107499;28;20031;-65
2022/08/27 03:39:25;;;;;;;17.02;5.93;;;;;;;20.18;77.24;99727.03;5107381;28;20360;-65
2022/08/27 03:41:50;;;;;;;11.80;5.80;;;;;;;20.16;77.14;99729.09;5106889;28;20084;-65
2022/08/27 03:44:16;;;;;;;14.00;6.00;;;;;;;20.13;77.33;99732.25;5105687;28;20035;-65
2022/08/27 03:46:42;;;;;;;17.02;5.93;;;;;;;20.11;77.40;99734.34;5107071;28;20036;-65
2022/08/27 03:49:07;;;;;;;12.32;5.13;;;;;;;20.10;77.82;99732.66;5107612;28;20102;-65
2022/08/27 03:51:33;;;;;;;17.45;5.45;;;;;;;20.09;76.95;99728.25;5105514;28;20023;-65
2022/08/27 03:53:58;;;;;;;13.70;5.93;;;;;;;20.05;76.80;99717.97;5107192;27;20122;-65
2022/08/27 03:56:24;;;;;;;11.05;5.53;;;;;;;20.06;76.33;99734.09;5107159;28;20047;-66
2022/08/27 03:58:49;;;;;;;10.88;5.45;;;;;;;20.08;75.76;99733.91;5105174;28;20032;-65
2022/08/27 04:01:16;;;;;;;16.20;5.40;;;;;;;20.07;75.99;99735.81;5105427;28;20032;-65
2022/08/27 04:03:42;;;;;;;8.52;4.45;;;;;;;20.03;75.61;99730.97;5106258;28;20045;-66
2022/08/27 04:06:08;;;;;;;19.40;5.68;;;;;;;20.05;76.36;99740.59;5108314;27;20023;-66
2022/08/27 04:08:34;;;;;;;10.55;5.32;;;;;;;20.06;76.23;99742.28;5106904;27;20027;-66
2022/08/27 04:10:59;;;;;;;18.13;5.80;;;;;;;20.05;76.48;99740.59;5104359;28;20027;-65
2022/08/27 04:13:25;;;;;;;23.08;7.20;;;;;;;20.06;77.96;99747.72;5105004;28;20016;-65
2022/08/27 04:15:53;;;;;;;18.48;6.45;;;;;;;20.03;78.49;99739.97;5103950;28;20040;-65
2022/08/27 04:18:18;;;;;;;12.57;5.65;;;;;;;20.06;78.68;99744.19;5103774;28;20088;-65
2022/08/27 04:20:49;;;;;;;13.57;5.53;;;;;;;20.05;78.36;99745.19;5106813;27;20378;-65
2022/08/27 04:23:15;;;;;;;16.20;6.38;;;;;;;20.05;78.17;99745.19;5104270;28;20028;-65
2022/08/27 04:25:42;;;;;;;14.45;6.15;;;;;;;20.07;78.23;99743.13;5105396;28;20035;-65
2022/08/27 04:28:08;;;;;;;12.57;5.70;;;;;;;20.06;79.26;99749.63;5105757;28;20386;-65
2022/08/27 04:30:39;;;;;;;15.48;5.85;;;;;;;20.06;79.56;99752.34;5105599;28;20027;-65
2022/08/27 04:33:04;;;;;;;19.77;6.43;;;;;;;20.05;79.78;99748.78;5110929;27;20467;-65
2022/08/27 04:35:30;;;;;;;11.85;5.47;;;;;;;20.09;79.40;99749.19;5111417;27;20062;-65
2022/08/27 04:37:56;;;;;;;11.55;6.15;;;;;;;20.13;78.48;99755.94;5106114;28;20042;-65
2022/08/27 04:41:18;;;;;;;14.52;5.40;;;;;;;20.09;77.56;99741.84;5105876;28;20095;-65
2022/08/27 04:43:07;;;;;;;14.52;5.63;;;;;;;20.22;76.97;99757.41;5105789;28;20483;-65
2022/08/27 04:45:32;;;;;;;14.23;5.90;;;;;;;20.27;76.52;99760.31;5106906;27;20039;-65
2022/08/27 04:47:58;;;;;;;11.27;4.95;;;;;;;20.34;77.34;99754.88;5106264;28;20035;-65
2022/08/27 04:50:23;;;;;;;17.02;6.38;;;;;;;20.40;77.83;99760.31;5106226;28;20054;-65
2022/08/27 04:52:49;;;;;;;15.38;5.68;;;;;;;20.46;77.13;99758.63;5105649;28;20055;-66
2022/08/27 04:55:14;;;;;;;15.32;5.05;;;;;;;20.56;75.89;99761.75;5107186;27;20031;-66
2022/08/27 04:57:40;;;;;;;17.80;5.07;;;;;;;20.70;73.51;99757.97;5103888;28;20039;-66
2022/08/27 05:00:08;;;;;;;8.88;5.50;;;;;;;20.77;72.02;99756.06;5105510;28;20059;-65
2022/08/27 05:02:33;;;;;;;14.80;5.57;;;;;;;20.87;71.09;99753.72;5103496;28;20062;-65
2022/08/27 05:04:59;;;;;;;11.18;5.43;;;;;;;21.02;69.79;99757.06;5104681;28;20059;-66
2022/08/27 05:07:25;;;;;;;15.00;5.10;;;;;;;21.14;68.59;99756.19;5105840;28;20027;-66
2022/08/27 05:09:51;;;;;;;13.27;5.03;;;;;;;21.27;68.51;99755.28;5104779;28;20094;-66
2022/08/27 05:12:16;;;;;;;13.93;4.93;;;;;;;21.38;68.05;99757.34;5105063;28;20019;-66
2022/08/27 05:14:42;;;;;;;8.70;5.00;;;;;;;21.49;67.63;99748.44;5104552;28;20034;-66
2022/08/27 05:17:07;;;;;;;7.63;4.72;;;;;;;21.62;67.41;99754.69;5105864;28;20020;-65
2022/08/27 05:19:33;;;;;;;11.73;5.15;;;;;;;21.69;67.13;99738.25;5107224;27;20035;-65
2022/08/27 05:21:58;;;;;;;160.45;19.38;;;;;;;21.84;66.89;99753.31;5105390;28;20019;-65
2022/08/27 05:24:24;;;;;;;54.28;9.45;;;;;;;21.91;66.59;99748.63;5105060;28;20732;-65
2022/08/27 05:26:49;;;;;;;21.88;5.95;;;;;;;22.05;65.99;99746.63;5104883;28;20027;-65
2022/08/27 05:29:15;;;;;;;20.65;5.13;;;;;;;22.19;65.54;99749.03;5103372;28;20046;-64
2022/08/27 05:31:42;;;;;;;29.15;6.05;;;;;;;22.25;65.13;99739.94;5105852;28;20823;-64
2022/08/27 05:34:08;;;;;;;15.05;5.35;;;;;;;22.38;64.46;99748.00;5102785;28;20015;-65
2022/08/27 05:36:34;;;;;;;19.92;4.60;;;;;;;22.54;64.10;99752.13;5102648;28;20108;-65
2022/08/27 05:39:03;;;;;;;13.10;5.28;;;;;;;22.69;63.48;99763.50;5103058;28;20042;-65
2022/08/27 05:41:31;;;;;;;24.98;5.43;;;;;;;22.84;63.81;99755.78;5104902;28;20131;-65
2022/08/27 05:44:00;;;;;;;23.15;5.47;;;;;;;23.00;64.22;99757.94;5101511;28;20107;-65
2022/08/27 05:46:26;;;;;;;15.13;5.38;;;;;;;23.19;63.37;99753.28;5103442;28;20035;-65
2022/08/27 05:48:55;;;;;;;7.22;4.82;;;;;;;23.35;61.61;99753.53;5104644;28;20038;-65
2022/08/27 05:51:25;;;;;;;16.73;4.20;;;;;;;23.48;60.86;99745.13;5104333;28;20031;-65
2022/08/27 05:53:54;;;;;;;13.27;5.28;;;;;;;23.60;58.36;99737.78;5104089;28;20027;-65
2022/08/27 05:56:22;;;;;;;41.30;8.20;;;;;;;23.84;57.35;99745.03;5105266;28;20526;-66
2022/08/27 06:01:37;;;;;;;22.17;6.32;;;;;;;24.09;55.75;99742.94;5104047;28;20114;-66
2022/08/27 06:04:05;;;;;;;10.40;4.85;;;;;;;24.26;55.67;99746.69;5103103;28;20518;-66
2022/08/27 06:06:39;;;;;;;16.63;5.20;;;;;;;24.44;54.74;99743.81;5105550;28;20035;-66
2022/08/27 06:09:06;;;;;;;13.63;5.55;;;;;;;24.60;54.44;99752.44;5103729;28;20160;-66
2022/08/27 06:11:32;;;;;;;14.07;4.75;;;;;;;24.76;54.16;99740.75;5106630;28;20565;-66
2022/08/27 06:13:58;;;;;;;13.77;4.50;;;;;;;24.97;53.77;99745.59;5105626;28;20051;-66
2022/08/27 06:16:24;;;;;;;21.85;5.35;;;;;;;25.15;53.14;99750.97;5104836;28;20169;-66
2022/08/27 06:18:49;;;;;;;10.15;4.55;;;;;;;25.31;52.39;99740.06;5108178;28;20431;-66
2022/08/27 06:21:18;;;;;;;10.85;4.93;;;;;;;25.49;51.95;99745.38;5108547;28;20084;-66
2022/08/27 06:23:44;;;;;;;9.65;5.10;;;;;;;25.68;51.45;99746.00;5109738;27;20032;-62
2022/08/27 06:26:12;;;;;;;32.88;7.25;;;;;;;25.84;51.27;99746.06;5110023;27;20097;-66
2022/08/27 06:28:41;;;;;;;14.98;5.50;;;;;;;26.01;51.17;99746.09;5107277;28;20020;-64
2022/08/27 06:31:13;;;;;;;8.80;4.63;;;;;;;26.13;50.56;99744.13;5107813;28;20026;-64
2022/08/27 06:33:41;;;;;;;8.55;4.80;;;;;;;26.26;49.47;99750.13;5103636;27;20076;-66
2022/08/27 06:36:09;;;;;;;11.60;4.88;;;;;;;26.39;49.81;99747.06;5106780;28;20118;-64
2022/08/27 06:38:35;;;;;;;9.18;5.38;;;;;;;26.56;49.33;99748.97;5103079;28;20063;-64
2022/08/27 06:41:03;;;;;;;9.35;4.53;;;;;;;26.67;48.86;99746.13;5107048;28;20486;-64
2022/08/27 06:43:29;;;;;;;13.35;4.97;;;;;;;26.82;48.76;99748.28;5107188;28;20410;-64
2022/08/27 06:45:54;;;;;;;16.05;5.05;;;;;;;26.92;48.60;99754.72;5107573;28;20026;-63
2022/08/27 06:48:20;;;;;;;7.30;5.00;;;;;;;27.00;48.25;99745.22;5110089;27;20035;-64
2022/08/27 06:50:46;;;;;;;9.50;4.82;;;;;;;27.11;47.81;99756.09;5107694;28;20027;-63
2022/08/27 06:53:12;;;;;;;8.40;4.75;;;;;;;27.22;47.26;99744.16;5108122;28;20035;-63
2022/08/27 06:55:42;;;;;;;9.95;4.45;;;;;;;27.34;46.71;99753.13;5106543;28;20479;-64
2022/08/27 06:58:08;;;;;;;9.30;4.50;;;;;;;27.41;46.75;99751.03;5108332;28;20036;-64
2022/08/27 07:00:33;;;;;;;10.40;4.50;;;;;;;27.55;46.71;99763.31;5108905;27;20025;-64
2022/08/27 07:03:00;;;;;;;7.47;4.38;;;;;;;27.67;46.85;99753.00;5108163;28;20742;-64
2022/08/27 07:05:26;;;;;;;11.73;4.55;;;;;;;27.76;46.10;99756.91;5108222;28;20080;-64
2022/08/27 07:07:52;;;;;;;8.35;4.15;;;;;;;27.83;46.01;99754.78;5108165;28;20180;-64
2022/08/27 07:10:17;;;;;;;11.15;4.72;;;;;;;28.00;46.18;99761.09;5107173;28;20540;-64
2022/08/27 07:12:43;;;;;;;10.27;4.50;;;;;;;28.14;45.23;99762.31;5109209;27;20073;-64
2022/08/27 07:15:09;;;;;;;9.82;4.78;;;;;;;28.25;45.13;99760.47;5108627;27;20023;-64
2022/08/27 07:17:34;;;;;;;12.40;4.63;;;;;;;28.38;45.30;99771.06;5107238;28;20026;-64
2022/08/27 07:20:00;;;;;;;9.30;4.43;;;;;;;28.48;45.50;99771.19;5108669;27;20036;-64
2022/08/27 07:22:25;;;;;;;12.52;4.15;;;;;;;28.48;44.25;99772.03;5108200;28;20528;-64
2022/08/27 07:24:52;;;;;;;13.32;4.75;;;;;;;28.51;44.35;99771.47;5109240;27;20032;-64
2022/08/27 07:27:20;;;;;;;11.45;4.88;;;;;;;28.49;43.46;99770.91;5107504;28;20495;-66
2022/08/27 07:29:45;;;;;;;9.68;4.45;;;;;;;28.47;43.70;99781.38;5107459;28;20035;-66
2022/08/27 07:32:11;;;;;;;6.78;4.15;;;;;;;28.44;44.09;99776.38;5107887;28;20042;-66
2022/08/27 07:34:36;;;;;;;7.97;3.88;;;;;;;28.45;44.02;99775.31;5108569;27;20026;-64
2022/08/27 07:37:02;;;;;;;9.38;5.03;;;;;;;28.39;44.11;99770.81;5109216;27;20518;-64
2022/08/27 07:39:27;;;;;;;7.78;4.20;;;;;;;28.32;44.54;99763.84;5109094;28;20063;-64
2022/08/27 07:44:42;;;;;;;11.20;4.90;;;;;;;28.32;43.74;99789.53;5108558;27;20643;-64
2022/08/27 07:47:07;;;;;;;10.07;4.80;;;;;;;28.21;43.63;99776.72;5108538;28;20020;-64
2022/08/27 07:49:34;;;;;;;8.23;4.63;;;;;;;28.30;43.77;99782.56;5102902;28;20036;-64
2022/08/27 07:52:01;;;;;;;11.38;4.40;;;;;;;28.32;43.79;99784.00;5106034;28;20090;-64
2022/08/27 07:54:27;;;;;;;10.88;5.07;;;;;;;28.44;44.05;99789.34;5105830;28;20031;-64
2022/08/27 07:56:53;;;;;;;9.73;4.13;;;;;;;28.49;43.73;99786.63;5107299;27;20031;-64
2022/08/27 07:59:19;;;;;;;10.48;4.30;;;;;;;28.57;43.27;99801.88;5112833;27;20083;-64
2022/08/27 08:01:44;;;;;;;11.05;4.40;;;;;;;28.54;43.36;99787.50;5103690;28;20398;-64
2022/08/27 08:04:10;;;;;;;6.28;3.60;;;;;;;28.60;43.04;99798.59;5100788;28;20115;-64
2022/08/27 08:06:37;;;;;;;10.48;4.80;;;;;;;28.59;43.13;99796.94;5105604;28;20129;-64
2022/08/27 08:09:04;;;;;;;8.40;4.35;;;;;;;28.64;42.43;99791.44;5106821;28;20554;-64
2022/08/27 08:11:30;;;;;;;11.32;5.03;;;;;;;28.68;42.08;99798.09;5106802;28;20024;-64
2022/08/27 08:13:55;;;;;;;13.13;4.55;;;;;;;28.69;42.24;99791.50;5106137;28;20035;-64
2022/08/27 08:16:23;;;;;;;16.25;4.93;;;;;;;28.77;42.14;99791.84;5106208;28;20031;-64
2022/08/27 08:18:49;;;;;;;8.82;4.72;;;;;;;28.84;42.63;99797.09;5104737;28;20111;-64
2022/08/27 08:21:14;;;;;;;8.27;3.88;;;;;;;28.89;42.47;99789.72;5106672;28;20111;-65
2022/08/27 08:23:41;;;;;;;7.25;4.18;;;;;;;29.03;42.13;99799.22;5105281;28;20061;-64
2022/08/27 08:26:08;;;;;;;7.70;3.95;;;;;;;29.07;41.77;99799.50;5105193;28;20119;-64
2022/08/27 08:28:35;;;;;;;10.10;4.57;;;;;;;29.10;42.16;99798.97;5103799;28;20114;-64
2022/08/27 08:31:02;;;;;;;11.48;4.38;;;;;;;29.24;42.31;99803.75;5106768;28;20101;-65
2022/08/27 08:33:30;;;;;;;8.98;4.60;;;;;;;29.31;41.79;99804.31;5105153;28;20055;-64
2022/08/27 08:36:05;;;;;;;10.60;4.50;;;;;;;29.38;42.03;99807.72;5106264;28;20761;-64
2022/08/27 08:38:31;;;;;;;11.45;4.20;;;;;;;29.43;41.71;99815.19;5106861;28;20489;-65
2022/08/27 08:40:57;;;;;;;12.57;4.82;;;;;;;29.52;41.49;99806.09;5104226;28;20031;-64
2022/08/27 08:43:36;;;;;;;10.48;4.93;;;;;;;29.65;41.44;99804.78;5102578;28;20066;-65
2022/08/27 08:46:32;;;;;;;9.07;4.65;;;;;;;29.73;41.55;99802.31;5107050;28;20106;-64
2022/08/27 08:49:04;;;;;;;10.65;4.28;;;;;;;29.83;41.69;99796.00;5103807;28;20049;-64
2022/08/27 08:51:40;;;;;;;6.78;4.50;;;;;;;29.94;41.30;99803.22;5106115;28;20039;-64
2022/08/27 08:54:12;;;;;;;10.30;4.88;;;;;;;30.00;41.09;99802.13;5104826;28;20112;-64
2022/08/27 08:56:56;;;;;;;7.53;4.03;;;;;;;30.09;41.04;99798.56;5104354;28;20538;-65
2022/08/27 08:59:36;;;;;;;;;;;;;;;30.20;40.70;99796.66;5106779;28;20395;-64
2022/08/27 09:02:05;;;;;;;7.28;4.28;;;;;;;30.38;40.14;99794.22;5106543;28;19943;-64
2022/08/27 09:04:30;;;;;;;13.80;4.32;;;;;;;30.45;39.48;99782.84;5105926;28;20123;-64
2022/08/27 09:07:09;;;;;;;10.82;4.00;;;;;;;30.60;38.79;99788.38;5105822;28;20098;-64
2022/08/27 09:10:02;;;;;;;16.48;4.55;;;;;;;30.68;38.53;99793.34;5105950;28;20038;-64
2022/08/27 09:12:32;;;;;;;9.73;4.35;;;;;;;30.78;38.13;99784.25;5103753;28;20030;-64
2022/08/27 09:15:18;;;;;;;6.75;4.00;;;;;;;30.90;37.95;99791.16;5105542;28;20427;-64
2022/08/27 09:21:19;;;;;;;8.82;3.55;;;;;;;31.14;37.60;99788.63;5136765;22;20050;-64
2022/08/27 09:24:17;;;;;;;9.70;3.88;;;;;;;31.25;37.13;99793.00;5105822;28;20036;-64
2022/08/27 09:26:43;;;;;;;9.65;4.10;;;;;;;31.35;36.70;99787.44;5086676;28;20109;-65
2022/08/27 09:29:18;;;;;;;8.18;3.75;;;;;;;31.41;36.40;99789.09;5103874;28;20034;-65
2022/08/27 09:31:56;;;;;;;4.70;3.67;;;;;;;31.52;36.54;99783.22;5106641;28;20497;-64
2022/08/27 09:34:22;;;;;;;9.70;4.30;;;;;;;31.63;36.18;99778.47;5104630;28;20521;-65
2022/08/27 09:36:59;;;;;;;9.55;3.85;;;;;;;31.74;35.60;99772.59;5106472;28;20476;-65
2022/08/27 09:39:33;;;;;;;8.93;3.85;;;;;;;31.89;35.07;99783.59;5106552;28;20505;-65
2022/08/27 09:42:03;;;;;;;9.00;3.90;;;;;;;31.97;35.02;99784.94;5087100;28;20104;-65
2022/08/27 09:44:31;;;;;;;8.30;4.05;;;;;;;32.05;34.95;99782.41;5104070;28;20100;-64
2022/08/27 09:47:01;;;;;;;7.43;3.58;;;;;;;32.14;34.75;99780.69;5106837;28;20100;-65
2022/08/27 09:49:27;;;;;;;7.40;3.70;;;;;;;32.23;34.49;99773.41;5088130;28;20066;-64
2022/08/27 09:51:54;;;;;;;8.18;3.42;;;;;;;32.31;33.31;99781.09;5109163;28;20076;-65
2022/08/27 09:54:38;;;;;;;6.95;3.33;;;;;;;32.37;32.62;99779.97;5110760;28;20032;-65
2022/08/27 09:57:05;;;;;;;8.07;3.58;;;;;;;32.45;32.61;99775.75;5110488;28;20432;-65
2022/08/27 09:59:40;;;;;;;6.70;3.60;;;;;;;32.51;32.72;99789.31;5110499;28;20068;-65
2022/08/27 10:02:18;;;;;;;7.93;3.78;;;;;;;32.57;32.76;99777.03;5110261;28;20032;-65
2022/08/27 10:04:45;;;;;;;8.82;3.67;;;;;;;32.63;31.30;99779.75;5109935;28;20107;-65
2022/08/27 10:07:37;;;;;;;6.60;3.17;;;;;;;32.69;30.00;99775.81;5110425;28;20035;-65
2022/08/27 10:10:06;;;;;;;7.63;3.30;;;;;;;32.73;29.54;99776.91;5089550;28;20812;-65
2022/08/27 10:12:42;;;;;;;7.18;2.80;;;;;;;32.82;28.59;99780.69;5092115;28;20559;-65
2022/08/27 10:15:10;;;;;;;9.82;3.05;;;;;;;32.78;29.20;99766.56;5110530;28;20019;-65
2022/08/27 10:17:56;;;;;;;7.22;3.17;;;;;;;32.83;29.06;99776.78;5110107;28;20546;-65
2022/08/27 10:20:32;;;;;;;3.55;2.58;;;;;;;32.88;28.98;99771.22;5109048;28;20494;-65
2022/08/27 10:23:07;;;;;;;8.15;3.00;;;;;;;32.93;28.78;99777.56;5110531;28;20040;-65
2022/08/27 10:25:51;;;;;;;8.20;3.15;;;;;;;32.97;28.72;99775.00;5091412;28;20132;-65
2022/08/27 10:28:52;;;;;;;9.38;3.20;;;;;;;33.01;28.95;99768.56;5109388;28;20024;-65
2022/08/27 10:31:31;;;;;;;7.38;3.05;;;;;;;33.01;29.21;99767.75;5055606;28;20226;-66
2022/08/27 10:34:21;;;;;;;8.77;3.95;;;;;;;33.05;35.30;99775.22;5108419;28;20048;-66
2022/08/27 10:37:23;;;;;;;22.60;4.38;;;;;;;32.87;36.73;99764.00;5089333;28;20038;-66
2022/08/27 10:40:07;;;;;;;31.58;5.10;;;;;;;32.78;37.80;99779.63;5110298;27;20092;-66
2022/08/27 10:42:40;;;;;;;16.67;4.72;;;;;;;32.66;37.30;99765.28;5108943;27;20479;-66
2022/08/27 10:45:12;;;;;;;20.40;4.18;;;;;;;32.53;36.51;99770.41;5090673;28;20110;-66
2022/08/27 10:47:50;;;;;;;26.42;5.25;;;;;;;32.39;37.19;99766.63;5090490;28;20031;-66
2022/08/27 10:50:38;;;;;;;26.77;5.65;;;;;;;32.35;35.96;99762.78;5090335;28;20439;-66
2022/08/27 10:53:09;;;;;;;23.83;5.15;;;;;;;32.27;36.90;99763.38;5110350;27;20031;-66
2022/08/27 10:55:41;;;;;;;14.63;4.28;;;;;;;32.19;37.86;99766.78;5109479;27;20027;-67
2022/08/27 10:58:20;;;;;;;14.95;4.45;;;;;;;32.08;35.68;99756.84;5107164;28;20440;-67
2022/08/27 11:01:36;;;;;;;8.77;3.63;;;;;;;32.04;31.23;99747.44;5107074;28;20051;-66
2022/08/27 11:04:07;;;;;;;17.73;3.72;;;;;;;32.05;34.82;99753.84;5069891;27;20054;-66
2022/08/27 11:06:38;;;;;;;13.65;3.92;;;;;;;31.96;37.15;99739.75;5110117;27;20058;-66
2022/08/27 11:09:12;;;;;;;14.00;4.57;;;;;;;31.96;38.25;99742.53;5107593;28;20026;-66
2022/08/27 11:11:43;;;;;;;17.38;3.80;;;;;;;31.91;34.62;99741.69;5109151;28;20099;-66
2022/08/27 11:14:19;;;;;;;14.45;3.97;;;;;;;31.88;37.72;99753.38;5108991;28;20047;-66
2022/08/27 11:16:50;;;;;;;10.65;4.10;;;;;;;31.83;37.55;99750.66;5106656;28;20428;-66
2022/08/27 11:19:25;;;;;;;12.07;4.10;;;;;;;31.74;38.06;99744.84;5104190;28;20128;-66
2022/08/27 11:21:59;;;;;;;12.75;3.80;;;;;;;31.74;37.13;99747.63;5106588;28;20047;-66
2022/08/27 11:24:35;;;;;;;12.93;3.20;;;;;;;31.68;36.23;99734.91;5108141;28;20503;-66
2022/08/27 11:27:04;;;;;;;7.55;3.30;;;;;;;31.74;36.85;99746.78;5107865;28;20059;-66
2022/08/27 11:29:37;;;;;;;11.02;3.28;;;;;;;31.77;35.08;99743.44;5088807;28;20035;-66
2022/08/27 11:32:23;;;;;;;5.10;3.17;;;;;;;31.81;33.12;99739.00;5107724;28;20764;-66
2022/08/27 11:35:21;;;;;;;7.22;3.13;;;;;;;31.88;34.43;99734.78;5096454;28;20043;-66
2022/08/27 11:38:05;;;;;;;8.98;3.78;;;;;;;31.93;35.56;99740.31;5107402;28;20027;-66
2022/08/27 11:40:49;;;;;;;7.32;2.88;;;;;;;31.96;33.63;99739.75;5106596;28;20039;-66
2022/08/27 11:43:25;;;;;;;9.60;3.45;;;;;;;32.04;32.09;99735.50;5107697;28;20043;-66
2022/08/27 11:45:58;;;;;;;8.43;3.17;;;;;;;32.10;34.97;99729.66;5107115;28;20043;-66
2022/08/27 11:48:39;;;;;;;7.83;3.00;;;;;;;32.11;33.60;99736.03;5107588;28;20028;-66
2022/08/27 11:51:08;;;;;;;5.32;3.25;;;;;;;32.07;35.77;99729.38;5106884;28;20355;-66